En poursuivant votre navigation sur ce site, vous acceptez l'utilisation de cookies pour vous proposer des contenus et services adaptés. Mentions légales.
  

11/11/2019  Mise à jour des tableaux d'analyses décadaires : rubrique climatologie
03/11/2019 Mise en ligne de la synthèse climatologique d'Octobre : 
CLIQUEZ ICI
01/11/2019  Mise à jour des tableaux d'analyses décadaires, mensuelles et annuelles : rubrique climatologie   

NOAA COMPLET DU MOIS

Si l'entête du tableau ne s'affiche pas correctement, => actualisez la page (F5 avec Internet Explorer, Chrome...).
Utilisez l'ascenseur sur la droite des lignes du tableau pour faire défiler verticalement les jours du mois.

TABLEAU DES DONNEES COMPLETES NOAA de MAI 2019

DATE TEMPERATURE
sous abri
TEMPARATURE 
au sol
VENT  et  Indice de Refroidissement Eolien  PRECIPITATIONS (en mm/m2)
et Intensité
PRESSION ATMOSPHERIQUE (en hPa) HUMIDITE de l'AIR RADIATIONS SOLAIRES (en W/m2)
Mini Moy. Maxi Mini Moy. Maxi Moyen Rafale I.R.E.
Minii
Précip. jour Cumul mois Intensité Maxi Mini Moy. Maxi Mini Moy. Maxi Pic maxi du jour Total jour
0 T° minimum T° moyenne T° maximum T° minimum T° moyenne T° maximum Moyen Rafale I.R.E. mini Du jour Cumulée Intensité maxi Minimum Moyenne Maximum Minimum Moyenne Maximum Pic maximum Total jour
01/05/19 3.9° 11.6° 20.3° 2.2° 11.6° 23.3° 0.3km/h dir O 14.5km/h dir O 3.9° 0 0 1012.8 1014.7 1016.6 47% 77.4% 95% 867 69 187
02/05/19 6.2° 10.7° 18.7° 4.4° 10.8° 24.4° 0.8km/h dir SO 35.4km/h dir SO 6.2° 6.2 6.2 58.2mm/h 1012 1013.3 1014.6 60% 86.4% 94% 1120 40 726
03/05/19 7.6° 12.2° 17.1° 5.6° 12.9° 21.7° 1.9km/h dir ONO 27.4km/h dir O 7.6° 0.6 6.8 1009.6 1012 1014.1 55% 79.8% 96% 1125 70 889
04/05/19 3.3° 8.1° 14.3° 2.8° 8.3° 18.9° 4.5km/h dir ONO 43.5km/h dir N -0.6° 10.4 17.2 48mm/h 1006.8 1010.4 1015 73% 87.9% 95% 1032 34 407
05/05/19 3.3° 6.2° 11.6° 2.8° 6.3° 15° 8.9km/h dir ONO 41.8km/h dir NO -0.4° 0.2 17.4 1014.7 1017.2 1019.5 53% 79.4% 94% 1111 45 643
06/05/19 1.3° 7.8° 14.3° -0.6° 18.9° 4.5km/h dir ONO 35.4km/h dir N 0.2° 0 17.4 1019.4 1020.2 1021 45% 73.1% 95% 1213 79 856
07/05/19 0.7° 10.7° 19.3° -0.6° 11.1° 21.7° 0.6km/h dir SSE 35.4km/h dir SSE 0.7° 0 17.4 1011.3 1016.3 1019.9 35% 64.3% 95% 965 77 588
08/05/19 11.6° 15.3° 8.3° 11.2° 14.4° 11.1km/h dir SSE 49.9km/h dir SSE 7.2° 24.2 41.6 30.2mm/h 1002.6 1006.8 1011.3 44% 85.5% 94% 401 13 273
09/05/19 12.6° 18° 8.3° 12.6° 21.7° 6km/h dir SSE 37km/h dir SSE 7.8° 2 43.6 3.4mm/h 1003.2 1006.2 1010.2 61% 82.4% 94% 1132 36 713
10/05/19 10.4° 15.2° 20.7° 10° 15.8° 25° 3.1km/h dir SSE 25.7km/h dir SE 10.4° 4.2 47.8 9.2mm/h 1010.2 1011.2 1012.5 56% 78.7% 96% 1245 60 704
11/05/19 9.7° 13.7° 17.8° 9.4° 13.8° 21.7° 7.7km/h dir SSE 38.6km/h dir SO 8.8° 3.8 51.6 45.4mm/h 1011 1016.3 1023.8 55% 79.8% 91% 1318 51 323
12/05/19 7.6° 11.7° 16.6° 6.1° 12° 19.4° 13.2km/h dir ONO 48.3km/h dir NNE 0 51.6 1023.8 1026.3 1028.4 47% 75.4% 95% 1114 70 392
13/05/19 6.7° 12.7° 18.6° 5.6° 12.8° 21.1° 19.6km/h dir N 57.9km/h dir N 0 51.6 1023.7 1025.5 1028.3 40% 59.4% 77% 909 84 831
14/05/19 7.7° 13.2° 18.8° 6.7° 13.3° 21.7° 17.9km/h dir N 59.5km/h dir ONO 4.3° 0 51.6 1018.5 1020.9 1024.1 38% 52.6% 67% 900 84 988
15/05/19 6.2° 12.1° 17.5° 12.1° 20° 17.7km/h dir N 48.3km/h dir ONO 2.5° 0 51.6 1014.6 1016.3 1018.9 44% 55.5% 69% 902 85 648
16/05/19 2.8° 11.7° 18.9° 1.1° 12° 23.3° 3.5km/h dir ONO 19.3km/h dir O 2.8° 0 51.6 1007.2 1011.4 1015.2 48% 68.4% 92% 926 84 891
17/05/19 9.3° 12.4° 16.9° 6.7° 12.3° 19.4° 4.2km/h dir SSE 35.4km/h dir SE 9.3° 3.4 55 2mm/h 1004 1005.5 1007.2 54% 77.8% 95% 657 33 465
18/05/19 9.7° 13.3° 20° 9.4° 14.1° 25° 1.8km/h dir NE 19.3km/h dir NE 9.7° 8.4 63.4 65mm/h 1003.7 1005.1 1006.4 54% 85.7% 96% 1099 54 999
19/05/19 11.1° 13.7° 17.8° 10.6° 13.9° 21.1° 4.2km/h dir ONO 27.4km/h dir ONO 10.7° 0.2 63.6 1004.6 1005.5 1006.7 67% 86.1% 96% 914 32 890
20/05/19 12.4° 13.9° 15.8° 12.2° 13.8° 17.2° 4.5km/h dir O 24.1km/h dir O 12.2° 0.6 64.2 1006.4 1008.9 1013 78% 87.7% 94% 457 18 896
21/05/19 11.5° 15.1° 20.5° 9.4° 15.4° 23.9° 5.3km/h dir N 25.7km/h dir ONO 11.6° 0.6 64.8 1013 1014.7 1016.9 60% 82% 96% 1086 57 021
22/05/19 7.8° 15.5° 21.7° 6.1° 15.4° 25° 6.6km/h dir ONO 33.8km/h dir N 7.9° 0.2 65 1016.7 1017.6 1018.3 44% 69.6% 95% 1018 86 323
23/05/19 5.7° 15.3° 23.8° 3.9° 15.4° 27.8° 2.1km/h dir ONO 16.1km/h dir O 5.7° 0 65 1014.1 1016.3 1017.8 40% 67.7% 94% 911 89 513
24/05/19 9.7° 17.8° 24.8° 8.3° 18.1° 29.4° 4.5km/h dir ONO 24.1km/h dir NNE 9.7° 0 65 1011.6 1013.4 1014.6 43% 67.8% 93% 1062 84 525
25/05/19 12.2° 17.9° 24.3° 8.9° 18.2° 27.8° 8km/h dir ONO 32.2km/h dir O 12.1° 0 65 1013.3 1014.6 1016.9 48% 69.4% 86% 983 80 702
26/05/19 11.7° 17.6° 23.3° 10.6° 17.8° 26.1° 8.4km/h dir ONO 29km/h dir N 11° 0 65 1013.3 1015.6 1017 42% 67.1% 89% 911 90 866
27/05/19 10.4° 15.8° 20.2° 8.3° 15.8° 24.4° 5.3km/h dir ONO 29km/h dir O 10.4° 0.2 65.2 1009.2 1011.4 1013.9 67% 80.4% 93% 742 43 070
28/05/19 11.3° 14.1° 18.1° 10° 14.3° 21.7° 5.3km/h dir O 35.4km/h dir O 9.2° 6.4 71.6 19.4mm/h 1008.5 1011.3 1015.5 56% 81.6% 95% 1067 45 840
29/05/19 8.9° 13.8° 18.7° 6.7° 13.6° 22.8° 6.3km/h dir ONO 29km/h dir N 8.9° 0 71.6 1015.5 1020 1023.9 53% 75.2% 93% 1092 60 316
30/05/19 6.1° 15.3° 22.7° 4.4° 15.5° 26.1° 5.8km/h dir ONO 27.4km/h dir ONO 6.1° 0 71.6 1023.8 1024.8 1026 43% 71.4% 95% 937 89 456

RETOUR ACCUEIL


Date de création : 02/06/2019 : 16:44
Catégorie : ANNEE 2019 - MOIS PASSES - MAI 2019
Page lue 352 fois